createdAt,value
2018-06-13T00:01:58.273Z,16.30
2018-06-13T00:04:26.423Z,16.20
2018-06-13T00:06:54.583Z,16.20
2018-06-13T00:09:22.742Z,16.20
2018-06-13T00:11:50.892Z,16.20
2018-06-13T00:14:19.066Z,16.20
2018-06-13T00:16:47.478Z,16.10
2018-06-13T00:19:15.668Z,16.10
2018-06-13T00:21:43.950Z,16.10
2018-06-13T00:24:12.114Z,16.10
2018-06-13T00:26:40.342Z,16.00
2018-06-13T00:29:08.526Z,15.90
2018-06-13T00:31:36.682Z,15.90
2018-06-13T00:34:04.851Z,15.90
2018-06-13T00:36:33.082Z,16.00
2018-06-13T00:39:01.251Z,15.90
2018-06-13T00:41:29.424Z,15.90
2018-06-13T00:43:57.961Z,15.90
2018-06-13T00:46:26.174Z,15.90
2018-06-13T00:48:54.938Z,15.90
2018-06-13T00:51:23.346Z,15.90
2018-06-13T00:53:51.546Z,15.90
2018-06-13T00:56:27.735Z,15.80
2018-06-13T00:58:55.898Z,15.80
2018-06-13T01:01:24.078Z,15.80
2018-06-13T01:03:52.530Z,15.70
2018-06-13T01:06:20.683Z,15.80
2018-06-13T01:08:48.895Z,15.90
2018-06-13T01:11:17.058Z,15.90
2018-06-13T01:13:45.219Z,15.80
2018-06-13T01:16:14.535Z,15.80
2018-06-13T01:18:42.711Z,15.90
2018-06-13T01:21:10.880Z,15.90
2018-06-13T01:23:39.030Z,15.80
2018-06-13T01:26:07.343Z,15.70
2018-06-13T01:28:35.809Z,15.60
2018-06-13T01:31:03.990Z,15.80
2018-06-13T01:33:32.169Z,15.80
2018-06-13T01:36:00.335Z,15.70
2018-06-13T01:38:28.527Z,15.60
2018-06-13T01:40:56.701Z,15.60
2018-06-13T01:43:24.865Z,15.60
2018-06-13T01:45:53.026Z,15.50
2018-06-13T01:48:22.040Z,15.50
2018-06-13T01:50:57.428Z,15.60
2018-06-13T01:53:26.766Z,15.70
2018-06-13T01:55:54.967Z,15.70
2018-06-13T01:58:23.151Z,15.70
2018-06-13T02:00:51.338Z,15.70
2018-06-13T02:03:19.499Z,15.70
2018-06-13T02:05:47.650Z,15.60
2018-06-13T02:08:16.119Z,15.60
2018-06-13T02:10:44.271Z,15.60
2018-06-13T02:13:12.420Z,15.70
2018-06-13T02:15:40.586Z,15.70
2018-06-13T02:18:08.747Z,15.70
2018-06-13T02:20:36.941Z,15.70
2018-06-13T02:23:05.119Z,15.60
2018-06-13T02:25:33.282Z,15.60
2018-06-13T02:28:01.667Z,15.60
2018-06-13T02:33:03.721Z,15.60
2018-06-13T02:35:31.924Z,15.50
2018-06-13T02:38:00.162Z,15.40
2018-06-13T02:40:28.330Z,15.40
2018-06-13T02:42:56.509Z,15.40
2018-06-13T02:45:24.722Z,15.50
2018-06-13T02:47:52.891Z,15.50
2018-06-13T02:50:21.041Z,15.30
2018-06-13T02:52:50.361Z,15.30
2018-06-13T02:55:18.514Z,15.40
2018-06-13T02:57:46.675Z,15.40
2018-06-13T03:00:14.861Z,15.40
2018-06-13T03:02:43.023Z,15.30
2018-06-13T03:05:11.194Z,15.30
2018-06-13T03:07:39.384Z,15.30
2018-06-13T03:10:07.544Z,15.30
2018-06-13T03:12:35.690Z,15.40
2018-06-13T03:15:04.374Z,15.30
2018-06-13T03:17:32.574Z,15.40
2018-06-13T03:20:00.770Z,15.40
2018-06-13T03:22:28.950Z,15.20
2018-06-13T03:24:57.135Z,15.20
2018-06-13T03:27:25.285Z,15.20
2018-06-13T03:29:53.465Z,15.10
2018-06-13T03:32:21.625Z,15.10
2018-06-13T03:34:49.798Z,15.10
2018-06-13T03:37:18.131Z,15.10
2018-06-13T03:39:46.295Z,15.00
2018-06-13T03:42:14.453Z,14.90
2018-06-13T03:44:42.630Z,14.90
2018-06-13T03:47:10.852Z,14.90
2018-06-13T03:49:39.047Z,14.80
2018-06-13T03:52:07.478Z,14.70
2018-06-13T03:54:35.783Z,14.50
2018-06-13T03:57:03.975Z,14.50
2018-06-13T03:59:32.208Z,14.50
2018-06-13T04:02:00.477Z,14.60
2018-06-13T04:04:28.630Z,14.40
2018-06-13T04:06:56.810Z,14.30
2018-06-13T04:09:24.986Z,14.30
2018-06-13T04:11:53.154Z,14.40
2018-06-13T04:14:21.333Z,14.30
2018-06-13T04:16:49.555Z,14.40
2018-06-13T04:19:17.714Z,14.30
2018-06-13T04:21:46.406Z,14.30
2018-06-13T04:24:14.603Z,14.20
2018-06-13T04:26:42.774Z,14.20
2018-06-13T04:29:10.957Z,14.20
2018-06-13T04:31:39.130Z,14.20
2018-06-13T04:34:07.420Z,14.20
2018-06-13T04:36:35.586Z,14.20
2018-06-13T04:39:05.418Z,14.10
2018-06-13T04:41:33.591Z,14.30
2018-06-13T04:44:01.774Z,14.40
2018-06-13T04:46:29.936Z,14.30
2018-06-13T04:48:58.097Z,14.20
2018-06-13T04:51:26.255Z,14.30
2018-06-13T04:53:54.993Z,14.40
2018-06-13T04:56:23.726Z,14.40
2018-06-13T04:58:51.882Z,14.30
2018-06-13T05:01:20.056Z,14.30
2018-06-13T05:03:48.273Z,14.40
2018-06-13T05:06:16.448Z,14.50
2018-06-13T05:08:44.622Z,14.50
2018-06-13T05:11:12.802Z,14.70
2018-06-13T05:13:40.968Z,14.60
2018-06-13T05:16:09.142Z,14.70
2018-06-13T05:18:37.386Z,14.80
2018-06-13T05:21:05.561Z,14.80
2018-06-13T05:23:33.714Z,14.80
2018-06-13T05:26:02.482Z,14.90
2018-06-13T05:28:30.648Z,14.80
2018-06-13T05:30:58.814Z,15.00
2018-06-13T05:33:27.151Z,15.00
2018-06-13T05:35:55.298Z,15.10
2018-06-13T05:38:23.530Z,15.10
2018-06-13T05:40:51.699Z,15.10
2018-06-13T05:43:19.856Z,15.20
2018-06-13T05:45:48.014Z,15.30
2018-06-13T05:48:16.567Z,15.40
2018-06-13T05:50:44.986Z,15.50
2018-06-13T05:53:13.180Z,15.50
2018-06-13T05:55:41.359Z,15.70
2018-06-13T05:58:10.047Z,15.80
2018-06-13T06:00:38.215Z,15.80
2018-06-13T06:03:06.856Z,15.70
2018-06-13T06:05:35.030Z,16.00
2018-06-13T06:08:03.205Z,16.20
2018-06-13T06:10:31.941Z,16.00
2018-06-13T06:13:00.102Z,15.70
2018-06-13T06:15:28.304Z,15.70
2018-06-13T06:17:56.480Z,15.90
2018-06-13T06:20:24.640Z,16.00
2018-06-13T06:22:52.817Z,15.90
2018-06-13T06:25:20.993Z,15.50
2018-06-13T06:27:49.153Z,15.80
2018-06-13T06:30:17.321Z,15.70
2018-06-13T06:32:46.263Z,16.00
2018-06-13T06:35:15.299Z,16.40
2018-06-13T06:37:43.518Z,16.50
2018-06-13T06:40:12.726Z,16.70
2018-06-13T06:42:40.952Z,16.20
2018-06-13T06:45:09.125Z,16.00
2018-06-13T06:47:37.295Z,15.80
2018-06-13T06:50:05.467Z,16.20
2018-06-13T06:52:33.641Z,16.40
2018-06-13T06:55:01.865Z,16.40
2018-06-13T06:57:30.011Z,16.20
2018-06-13T06:59:58.794Z,15.80
2018-06-13T07:02:26.958Z,15.60
2018-06-13T07:04:55.519Z,15.40
2018-06-13T07:07:23.674Z,15.60
2018-06-13T07:09:51.849Z,15.50
2018-06-13T07:12:20.015Z,15.40
2018-06-13T07:14:48.173Z,15.40
2018-06-13T07:17:16.350Z,15.60
2018-06-13T07:19:44.509Z,15.80
2018-06-13T07:22:12.677Z,16.00
2018-06-13T07:24:40.915Z,15.80
2018-06-13T07:27:09.010Z,15.80
2018-06-13T07:29:37.170Z,15.90
2018-06-13T07:32:05.487Z,15.70
2018-06-13T07:34:33.639Z,15.60
2018-06-13T07:37:01.812Z,15.70
2018-06-13T07:39:30.042Z,15.50
2018-06-13T07:41:58.198Z,15.70
2018-06-13T07:44:26.346Z,15.80
2018-06-13T07:46:54.547Z,15.70
2018-06-13T07:49:22.726Z,15.60
2018-06-13T07:51:50.919Z,15.80
2018-06-13T07:54:19.201Z,15.70
2018-06-13T07:56:47.347Z,15.90
2018-06-13T07:59:15.525Z,16.10
2018-06-13T08:01:54.783Z,16.10
2018-06-13T08:04:22.926Z,15.70
2018-06-13T08:06:51.070Z,15.70
2018-06-13T08:09:19.225Z,15.90
2018-06-13T08:11:47.385Z,16.10
2018-06-13T08:14:15.536Z,15.90
2018-06-13T08:16:43.694Z,15.90
2018-06-13T08:19:11.844Z,15.90
2018-06-13T08:21:40.010Z,16.00
2018-06-13T08:26:42.627Z,16.20
2018-06-13T08:29:10.787Z,16.20
2018-06-13T08:31:39.054Z,16.00
2018-06-13T08:34:07.231Z,16.30
2018-06-13T08:36:35.390Z,16.10
2018-06-13T08:39:03.973Z,16.30
2018-06-13T08:41:32.143Z,16.20
2018-06-13T08:44:00.307Z,16.10
2018-06-13T08:46:28.506Z,16.40
2018-06-13T08:48:56.686Z,16.20
2018-06-13T08:51:24.858Z,15.90
2018-06-13T08:53:53.014Z,16.10
2018-06-13T08:56:21.186Z,15.90
2018-06-13T08:58:49.329Z,15.80
2018-06-13T09:01:17.487Z,16.00
2018-06-13T09:03:47.682Z,15.90
2018-06-13T09:06:15.826Z,16.10
2018-06-13T09:08:43.995Z,16.40
2018-06-13T09:11:12.266Z,16.30
2018-06-13T09:13:40.473Z,16.20
2018-06-13T09:16:08.650Z,16.30
2018-06-13T09:18:36.814Z,16.50
2018-06-13T09:21:04.973Z,16.70
2018-06-13T09:23:33.147Z,16.80
2018-06-13T09:26:01.310Z,16.70
2018-06-13T09:28:29.472Z,16.90
2018-06-13T09:30:57.640Z,17.40
2018-06-13T09:33:25.837Z,17.30
2018-06-13T09:35:53.993Z,17.00
2018-06-13T09:38:22.147Z,17.40
2018-06-13T09:40:50.317Z,17.80
2018-06-13T09:43:18.484Z,17.70
2018-06-13T09:45:46.630Z,17.40
2018-06-13T09:48:14.813Z,17.40
2018-06-13T09:50:42.967Z,17.10
2018-06-13T09:53:11.118Z,17.00
2018-06-13T09:55:39.810Z,16.90
2018-06-13T09:58:07.946Z,16.80
2018-06-13T10:00:41.475Z,16.70
2018-06-13T10:03:09.614Z,16.70
2018-06-13T10:05:38.364Z,16.70
2018-06-13T10:08:07.154Z,16.60
2018-06-13T10:10:35.329Z,16.50
2018-06-13T10:13:03.498Z,16.60
2018-06-13T10:15:31.786Z,16.80
2018-06-13T10:17:59.942Z,16.90
2018-06-13T10:20:28.118Z,17.00
2018-06-13T10:22:56.302Z,17.30
2018-06-13T10:25:24.467Z,17.50
2018-06-13T10:27:52.614Z,17.30
2018-06-13T10:30:20.786Z,17.50
2018-06-13T10:32:49.003Z,17.90
2018-06-13T10:35:17.266Z,18.50
2018-06-13T10:37:45.960Z,18.40
2018-06-13T10:40:14.119Z,18.10
2018-06-13T10:42:42.273Z,17.90
2018-06-13T10:45:10.442Z,18.50
2018-06-13T10:47:38.646Z,19.00
2018-06-13T10:50:06.798Z,19.20
2018-06-13T10:52:35.013Z,19.00
2018-06-13T10:55:03.376Z,19.00
2018-06-13T10:57:31.550Z,18.80
2018-06-13T10:59:59.814Z,18.60
2018-06-13T11:02:27.974Z,18.30
2018-06-13T11:04:56.173Z,18.20
2018-06-13T11:07:24.922Z,17.80
2018-06-13T11:09:53.078Z,17.90
2018-06-13T11:12:21.233Z,18.00
2018-06-13T11:14:49.398Z,17.90
2018-06-13T11:17:17.546Z,17.40
2018-06-13T11:19:45.690Z,17.80
2018-06-13T11:22:14.719Z,18.00
2018-06-13T11:24:42.895Z,18.10
2018-06-13T11:27:11.043Z,18.20
2018-06-13T11:29:39.203Z,18.20
2018-06-13T11:32:07.356Z,18.10
2018-06-13T11:34:35.506Z,18.40
2018-06-13T11:37:04.358Z,18.60
2018-06-13T11:39:32.526Z,18.80
2018-06-13T11:42:00.681Z,18.40
2018-06-13T11:44:29.150Z,18.40
2018-06-13T11:46:57.307Z,18.30
2018-06-13T11:49:25.466Z,18.20
2018-06-13T11:51:53.634Z,18.20
2018-06-13T11:54:28.487Z,18.30
2018-06-13T11:56:57.579Z,18.40
2018-06-13T11:59:25.845Z,18.50
2018-06-13T12:01:54.015Z,18.50
2018-06-13T12:04:22.251Z,18.50
2018-06-13T12:06:50.426Z,18.20
2018-06-13T12:09:18.722Z,17.90
2018-06-13T12:11:46.945Z,18.20
2018-06-13T12:14:15.109Z,18.40
2018-06-13T12:16:43.563Z,18.30
2018-06-13T12:19:11.742Z,18.10
2018-06-13T12:21:39.903Z,17.80
2018-06-13T12:24:08.088Z,17.80
2018-06-13T12:26:36.618Z,17.70
2018-06-13T12:29:04.939Z,17.90
2018-06-13T12:31:33.106Z,18.20
2018-06-13T12:34:01.427Z,18.20
2018-06-13T12:36:29.582Z,18.10
2018-06-13T12:38:58.312Z,17.90
2018-06-13T12:41:26.485Z,18.20
2018-06-13T12:43:54.654Z,18.10
2018-06-13T12:46:22.831Z,18.20
2018-06-13T12:48:51.406Z,18.30
2018-06-13T12:51:19.559Z,18.10
2018-06-13T12:53:47.726Z,18.30
2018-06-13T12:56:15.945Z,18.20
2018-06-13T12:58:44.181Z,18.50
2018-06-13T13:01:12.303Z,18.70
2018-06-13T13:03:40.463Z,18.50
2018-06-13T13:06:08.627Z,18.40
2018-06-13T13:08:36.805Z,18.40
2018-06-13T13:11:17.871Z,18.50
2018-06-13T13:13:46.546Z,18.30
2018-06-13T13:16:14.702Z,18.50
2018-06-13T13:18:42.875Z,18.70
2018-06-13T13:21:11.314Z,18.70
2018-06-13T13:23:39.478Z,18.70
2018-06-13T13:26:09.529Z,18.70
2018-06-13T13:28:37.684Z,18.60
2018-06-13T13:31:05.854Z,18.30
2018-06-13T13:33:34.018Z,18.10
2018-06-13T13:36:02.184Z,18.20
2018-06-13T13:38:30.349Z,18.30
2018-06-13T13:40:59.236Z,18.40
2018-06-13T13:43:27.409Z,18.50
2018-06-13T13:45:55.629Z,18.50
2018-06-13T13:48:23.758Z,18.90
2018-06-13T13:50:51.939Z,19.00
2018-06-13T13:53:20.106Z,19.00
2018-06-13T13:55:48.270Z,19.00
2018-06-13T13:58:16.435Z,18.70
2018-06-13T14:00:44.623Z,18.50
2018-06-13T14:03:12.812Z,18.30
2018-06-13T14:05:40.968Z,18.20
2018-06-13T14:08:09.163Z,17.60
2018-06-13T14:10:37.629Z,17.40
2018-06-13T14:13:05.869Z,17.70
2018-06-13T14:15:34.116Z,17.90
2018-06-13T14:18:02.293Z,17.90
2018-06-13T14:20:30.447Z,17.90
2018-06-13T14:22:58.697Z,17.90
2018-06-13T14:25:26.861Z,17.80
2018-06-13T14:27:55.225Z,17.80
2018-06-13T14:30:23.370Z,17.70
2018-06-13T14:32:52.119Z,17.80
2018-06-13T14:35:20.282Z,17.90
2018-06-13T14:37:48.455Z,17.90
2018-06-13T14:40:16.641Z,18.00
2018-06-13T14:42:45.185Z,18.10
2018-06-13T14:45:13.443Z,17.80
2018-06-13T14:47:41.571Z,17.70
2018-06-13T14:50:09.770Z,18.00
2018-06-13T14:52:37.961Z,17.90
2018-06-13T21:30:40.986Z,15.20
2018-06-13T21:33:09.130Z,15.20
2018-06-13T21:35:37.330Z,15.00
2018-06-13T21:38:05.486Z,15.00
2018-06-13T21:40:33.675Z,15.00
2018-06-13T21:43:01.838Z,15.00
2018-06-13T21:45:30.174Z,15.00
2018-06-13T21:47:58.399Z,15.10
2018-06-13T21:50:26.577Z,15.10
2018-06-13T21:52:55.038Z,15.20
2018-06-13T21:55:23.211Z,15.10
2018-06-13T21:57:51.386Z,15.10
2018-06-13T22:00:19.560Z,15.10
2018-06-13T22:02:47.718Z,15.20
2018-06-13T22:05:15.883Z,15.30
2018-06-13T22:07:44.046Z,15.20
2018-06-13T22:10:12.207Z,15.20
2018-06-13T22:12:40.413Z,15.20
2018-06-13T22:15:16.358Z,15.20
2018-06-13T22:17:44.527Z,15.20
2018-06-13T22:20:13.481Z,15.20
2018-06-13T22:22:41.715Z,15.20
2018-06-13T22:25:09.854Z,15.20
2018-06-13T22:27:38.007Z,15.20
2018-06-13T22:30:06.300Z,15.20
2018-06-13T22:32:35.042Z,15.10
2018-06-13T22:35:03.382Z,15.10
2018-06-13T22:37:31.597Z,15.10
2018-06-13T22:39:59.742Z,15.00
2018-06-13T22:42:27.882Z,15.00
2018-06-13T22:44:56.067Z,15.10
2018-06-13T22:47:24.214Z,15.10
2018-06-13T22:49:52.414Z,15.10
2018-06-13T22:52:20.596Z,15.10
2018-06-13T22:54:48.737Z,15.20
2018-06-13T22:57:16.910Z,15.10
2018-06-13T22:59:45.142Z,15.10
2018-06-13T23:02:13.330Z,15.00
2018-06-13T23:04:41.647Z,15.10
2018-06-13T23:07:09.833Z,15.00
2018-06-13T23:09:38.049Z,15.10
2018-06-13T23:12:06.218Z,15.10
2018-06-13T23:14:34.480Z,15.20
2018-06-13T23:17:02.674Z,15.10
2018-06-13T23:19:30.945Z,15.10
2018-06-13T23:21:59.794Z,15.10
2018-06-13T23:24:27.979Z,15.20
2018-06-13T23:26:56.349Z,15.10
2018-06-13T23:29:24.466Z,15.10
2018-06-13T23:31:52.661Z,15.10
2018-06-13T23:34:21.774Z,15.10
2018-06-13T23:36:49.988Z,15.10
2018-06-13T23:39:18.142Z,15.10
2018-06-13T23:41:46.298Z,15.00
2018-06-13T23:44:14.814Z,15.00
2018-06-13T23:46:43.012Z,14.80
2018-06-13T23:49:11.183Z,14.90
2018-06-13T23:51:39.973Z,14.90
2018-06-13T23:54:08.149Z,15.00
2018-06-13T23:56:36.318Z,14.90
2018-06-13T23:59:04.491Z,14.90
